Oakdale, WI (54649)

2:46 PM CDT on September 01, 2015 (GMT -0500)
Volk | | Change Station
CLOSE
Current Station
Airport
Location: Volk,
Elevation: 909 ft
Nearby Weather Stations

Elev 909 ft 43.94 °N, 90.25 °W | Updated 48 minutes ago

Partly Cloudy
Partly Cloudy
88 °F
Feels Like 96 °F
N
8
Wind Variable Wind from South

Today
High -- | Low -- °F
--% Chance of Precip.
Yesterday
High -- | Low -- °F
Precip. -- in
6:24 AM 7:37 PM
Waning Gibbous, 87% visible
Pressure 29.94 in
Visibility 10.0 miles
Clouds Few 5000 ft
Scattered Clouds 25000 ft
Heat Index 96 °F
Dew Point 73 °F
Humidity 62%
Rainfall 0.00 in
Snow Depth Not available.
UV 6 out of 12
Pollen 10.40 out of 12
Air Quality Not available.
Flu Activity Not available.
METAR KVOK 011858Z 18007KT 10SM FEW050 SCT250 31/23 A2995 RMK AO2A SLP139
Pressure 29.94 in
Visibility 10.0 miles
Clouds Few 5000 ft
Scattered Clouds 25000 ft
Heat Index 96 °F
Dew Point 73 °F
Humidity 62%
Rainfall 0.00 in
Snow Depth Not available.
UV 6 out of 12
Pollen 10.40 out of 12
Air Quality Not available.
Flu Activity Not available.
METAR KVOK 011858Z 18007KT 10SM FEW050 SCT250 31/23 A2995 RMK AO2A SLP139

10-Day Weather Forecast

×

Almanac

Astronomy

Sep. 01, 2015 Rise Set
Actual Time
Civil Twilight
Nautical Twilight
Astronomical Twilight
Moon
Length of Visible Light
Length of Day
Tomorrow will be .
, % of the Moon is Illuminated

Today's Extremes

State Highs State Lows

Community

WunderPhotos

Upload Photos

1,851,597 photos uploaded!

WunderBlogs® & News

Nearby

Air Quality

  Air Quality AQ Index Pollutant
Not available.

Snow Depth

Station Depth Elevation

Earthquake Activity

City Distance Mag. Time & Date
Minimum magnitude displayed is 2.5.

Coastal Water Temperatures

Place Temperature

Stations

Nearby Weather Stations

Station Location Temp. Windchill Dew Point Humidity Wind Precip. Elev Updated Type